Shawano, WI

8:48 PM CDT on March 23, 2017 (GMT -0500)
Shawano

Weather History for KEZS - April, 2014

Change the Weather History Date:

Tuesday, April 1, 2014

  Actual Average (KCLI) Record (KCLI)
Temperature  
Mean Temperature 38 °F -  
Max Temperature 48 °F 48 °F 81 °F (1986)
Min Temperature 29 °F 27 °F 8 °F (1975)
Degree Days  
Heating Degree Days 26    
Moisture  
Dew Point 25 °F    
Average Humidity 67    
Maximum Humidity 77    
Minimum Humidity 57    
Precipitation  
Precipitation 0.00 in - - ()
Sea Level Pressure  
Sea Level Pressure 29.72 in    
Wind  
Wind Speed 11 mph (WSW)    
Max Wind Speed 20 mph    
Max Gust Speed 32 mph    
Visibility 10 miles    
Events      
Averages and records for this station are not official NWS values.
T = Trace of Precipitation, MM = Missing Value Source: NWS Daily Summary

Daily Weather History Graph

Daily Weather History Graph

Search for Another Location

Airport or City:

Trip Planner

Search our weather history database for the weather conditions in past years. The results will help you decide how hot, cold, wet, or windy it might be!

Date:

Astronomy

Apr. 01, 2014 Rise Set
Actual Time 6:35 AM CDT 7:21 PM CDT
Civil Twilight 6:05 AM CDT 7:51 PM CDT
Nautical Twilight 5:30 AM CDT 8:26 PM CDT
Astronomical Twilight 4:53 AM CDT 9:03 PM CDT
Moon 7:32 AM CDT (4/1) 9:50 PM CDT (4/1)
Length of Visible Light 13h 46m
Length of Day
12h 46m
Waxing Crescent, 5% of the Moon is Illuminated
Apr 1
Waxing Crescent
Apr 7
First Quarter
Apr 15
Full
Apr 22
Last Quarter
Apr 29
New

Hourly Weather History & Observations

Time (CDT) Temp. Windchill Dew Point Humidity Pressure Visibility Wind Dir Wind Speed Gust Speed Precip Events Conditions
12:15 AM 47.7 °F - 33.6 °F 58% 29.56 in 10.0 mi SE 8.1 mph - N/A   Clear
12:35 AM 48.2 °F - 33.8 °F 58% 29.55 in 10.0 mi SE 6.9 mph - N/A   Scattered Clouds
12:55 AM 48.0 °F - 33.8 °F 58% 29.54 in 10.0 mi SSE 8.1 mph - N/A   Mostly Cloudy
1:15 AM 47.5 °F - 34.3 °F 60% 29.54 in 10.0 mi SE 9.2 mph - N/A   Overcast
1:35 AM 46.6 °F - 34.7 °F 63% 29.53 in 10.0 mi SE 10.4 mph - N/A   Scattered Clouds
1:55 AM 45.7 °F 40.6 °F 34.9 °F 66% 29.53 in 10.0 mi SSE 10.4 mph - N/A   Clear
2:15 AM 45.1 °F 39.5 °F 34.9 °F 67% 29.52 in 10.0 mi SSE 11.5 mph - N/A   Clear
2:35 AM 45.3 °F 41.1 °F 35.2 °F 68% 29.52 in 10.0 mi SSE 8.1 mph 17.3 mph N/A   Clear
2:55 AM 45.0 °F 40.6 °F 35.6 °F 70% 29.51 in 10.0 mi SSE 8.1 mph - N/A   Clear
3:15 AM 45.7 °F 41.5 °F 36.0 °F 69% 29.51 in 10.0 mi SSE 8.1 mph - N/A   Mostly Cloudy
3:35 AM 45.7 °F 41.0 °F 36.1 °F 69% 29.49 in 10.0 mi SSE 9.2 mph 19.6 mph N/A   Overcast
3:55 AM 45.9 °F 41.7 °F 36.1 °F 69% 29.49 in 10.0 mi South 8.1 mph - N/A   Scattered Clouds
4:15 AM 45.9 °F 43.6 °F 36.9 °F 71% 29.49 in 10.0 mi SSW 4.6 mph - N/A   Clear
4:35 AM 43.9 °F 38.3 °F 34.2 °F 69% 29.51 in 10.0 mi WSW 10.4 mph 18.4 mph N/A   Clear
4:55 AM 41.9 °F 35.0 °F 31.8 °F 67% 29.51 in 10.0 mi WSW 12.7 mph 20.7 mph N/A   Scattered Clouds
5:15 AM 40.3 °F 34.4 °F 31.1 °F 70% 29.52 in 10.0 mi WSW 9.2 mph 16.1 mph N/A   Mostly Cloudy
5:35 AM 40.1 °F 35.3 °F 30.9 °F 70% 29.52 in 10.0 mi SW 6.9 mph - N/A   Overcast
5:55 AM 39.7 °F 33.2 °F 30.9 °F 71% 29.53 in 10.0 mi WSW 10.4 mph - N/A   Overcast
6:15 AM 37.8 °F 30.2 °F 29.8 °F 73% 29.54 in 10.0 mi WSW 11.5 mph 20.7 mph N/A   Overcast
6:35 AM 36.1 °F 26.9 °F 28.8 °F 75% 29.55 in 10.0 mi SW 15.0 mph 20.7 mph N/A   Overcast
6:55 AM 35.8 °F 27.3 °F 28.4 °F 75% 29.56 in 10.0 mi WSW 12.7 mph 16.1 mph N/A   Overcast
7:15 AM 34.9 °F 25.3 °F 26.4 °F 71% 29.57 in 10.0 mi WSW 15.0 mph 23.0 mph N/A   Overcast
7:35 AM 34.3 °F 25.0 °F 25.9 °F 71% 29.58 in 10.0 mi WSW 13.8 mph 23.0 mph N/A   Overcast
7:55 AM 33.8 °F 23.2 °F 25.7 °F 72% 29.59 in 10.0 mi WSW 17.3 mph 26.5 mph N/A   Overcast
8:15 AM 33.1 °F 22.2 °F 25.5 °F 74% 29.60 in 10.0 mi SW 17.3 mph 23.0 mph N/A   Overcast
8:35 AM 32.2 °F 22.3 °F 24.8 °F 74% 29.61 in 10.0 mi WSW 13.8 mph 25.3 mph N/A   Overcast
8:55 AM 32.0 °F 21.2 °F 23.7 °F 71% 29.61 in 10.0 mi SW 16.1 mph 25.3 mph N/A   Overcast
9:15 AM 32.0 °F 20.1 °F 22.8 °F 69% 29.62 in 10.0 mi WSW 19.6 mph 27.6 mph N/A   Overcast
9:35 AM 31.6 °F 20.7 °F 23.4 °F 71% 29.62 in 10.0 mi WSW 16.1 mph 24.2 mph N/A   Overcast
9:55 AM 31.6 °F 21.2 °F 23.7 °F 73% 29.63 in 10.0 mi SW 15.0 mph 21.9 mph N/A   Overcast
10:15 AM 31.5 °F 22.3 °F 24.4 °F 75% 29.64 in 10.0 mi WSW 11.5 mph 18.4 mph N/A   Overcast
10:35 AM 32.0 °F 23.0 °F 24.6 °F 74% 29.64 in 10.0 mi SW 11.5 mph 18.4 mph N/A   Overcast
10:55 AM 32.0 °F 21.2 °F 24.4 °F 74% 29.64 in 10.0 mi WSW 16.1 mph 21.9 mph N/A   Overcast
11:15 AM 32.0 °F 21.6 °F 24.4 °F 74% 29.65 in 10.0 mi WSW 15.0 mph 24.2 mph N/A   Overcast
11:35 AM 32.2 °F 21.8 °F 24.8 °F 74% 29.66 in 10.0 mi WSW 15.0 mph 23.0 mph N/A   Overcast
11:55 AM 32.2 °F 22.7 °F 25.2 °F 75% 29.66 in 10.0 mi WSW 12.7 mph 20.7 mph N/A   Overcast
12:15 PM 32.4 °F 22.5 °F 25.2 °F 75% 29.67 in 10.0 mi WSW 13.8 mph 24.2 mph N/A   Overcast
12:35 PM 32.4 °F 21.7 °F 25.9 °F 77% 29.68 in 10.0 mi WSW 16.1 mph 20.7 mph N/A   Overcast
12:55 PM 32.0 °F 20.5 °F 24.6 °F 74% 29.69 in 10.0 mi WSW 18.4 mph 25.3 mph N/A   Overcast
1:15 PM 31.1 °F 19.7 °F 23.5 °F 74% 29.71 in 10.0 mi WSW 17.3 mph 29.9 mph N/A   Overcast
1:35 PM 30.7 °F 18.5 °F 22.8 °F 72% 29.72 in 10.0 mi West 19.6 mph 32.2 mph N/A   Overcast
1:55 PM 30.2 °F 20.2 °F 22.6 °F 73% 29.73 in 10.0 mi West 12.7 mph 23.0 mph N/A   Overcast
2:15 PM 30.4 °F 18.7 °F 20.8 °F 68% 29.74 in 10.0 mi West 17.3 mph 25.3 mph N/A   Overcast
2:35 PM 30.0 °F 17.5 °F 19.4 °F 65% 29.75 in 10.0 mi West 19.6 mph 32.2 mph N/A   Overcast
2:55 PM 29.7 °F 18.6 °F 19.4 °F 66% 29.77 in 10.0 mi West 15.0 mph 26.5 mph N/A   Overcast
3:15 PM 29.3 °F 16.6 °F 18.5 °F 64% 29.78 in 10.0 mi West 19.6 mph 27.6 mph N/A   Overcast
3:35 PM 29.5 °F 18.0 °F 17.8 °F 62% 29.79 in 10.0 mi West 16.1 mph 27.6 mph N/A   Overcast
3:55 PM 30.4 °F 19.5 °F 18.5 °F 61% 29.80 in 10.0 mi West 15.0 mph 27.6 mph N/A   Overcast
4:15 PM 30.9 °F 20.7 °F 18.1 °F 59% 29.80 in 10.0 mi West 13.8 mph 26.5 mph N/A   Overcast
4:35 PM 31.8 °F 22.8 °F 18.3 °F 57% 29.81 in 10.0 mi WNW 11.5 mph 24.2 mph N/A   Overcast
4:55 PM 31.6 °F 23.7 °F 18.5 °F 58% 29.83 in 10.0 mi West 9.2 mph 20.7 mph N/A   Overcast
5:15 PM 31.6 °F 22.6 °F 19.2 °F 60% 29.84 in 10.0 mi West 11.5 mph 21.9 mph N/A   Overcast
5:35 PM 32.2 °F 22.7 °F 19.2 °F 59% 29.86 in 10.0 mi West 12.7 mph 21.9 mph N/A   Overcast
5:55 PM 32.9 °F 23.2 °F 19.4 °F 58% 29.86 in 10.0 mi West 13.8 mph 17.3 mph N/A   Mostly Cloudy
6:15 PM 33.3 °F 25.1 °F 19.6 °F 57% 29.87 in 10.0 mi West 10.4 mph 23.0 mph N/A   Scattered Clouds
6:35 PM 32.9 °F 24.7 °F 19.9 °F 59% 29.89 in 10.0 mi West 10.4 mph 21.9 mph N/A   Scattered Clouds
6:55 PM 32.4 °F 23.5 °F 19.9 °F 60% 29.91 in 10.0 mi West 11.5 mph 17.3 mph N/A   Clear
7:15 PM 32.0 °F 24.2 °F 19.4 °F 60% 29.92 in 10.0 mi West 9.2 mph 20.7 mph N/A   Clear
7:35 PM 32.0 °F 24.8 °F 19.2 °F 59% 29.94 in 10.0 mi West 8.1 mph 16.1 mph N/A   Clear
7:55 PM 32.0 °F 24.2 °F 19.4 °F 60% 29.96 in 10.0 mi West 9.2 mph 17.3 mph N/A   Clear
8:15 PM 31.6 °F 26.0 °F 19.8 °F 62% 29.97 in 10.0 mi West 5.8 mph - N/A   Clear
8:35 PM 31.1 °F 25.4 °F 19.8 °F 63% 29.98 in 10.0 mi WSW 5.8 mph - N/A   Clear
8:55 PM 30.7 °F 24.9 °F 20.1 °F 65% 29.99 in 10.0 mi West 5.8 mph - N/A   Clear
9:15 PM 30.9 °F 25.2 °F 20.3 °F 65% 29.99 in 10.0 mi WSW 5.8 mph - N/A   Clear
9:35 PM 31.1 °F 25.4 °F 20.7 °F 65% 29.99 in 10.0 mi West 5.8 mph - N/A   Clear
9:55 PM 30.7 °F 27.3 °F 20.8 °F 67% 29.99 in 10.0 mi West 3.5 mph - N/A   Clear
10:15 PM 30.7 °F 26.0 °F 20.8 °F 67% 30.00 in 10.0 mi West 4.6 mph - N/A   Clear
10:35 PM 30.4 °F 25.6 °F 20.8 °F 68% 30.01 in 10.0 mi West 4.6 mph - N/A   Clear
10:55 PM 30.6 °F 27.1 °F 20.3 °F 66% 30.02 in 10.0 mi WSW 3.5 mph - N/A   Clear
11:15 PM 30.2 °F 25.4 °F 20.3 °F 67% 30.02 in 10.0 mi WSW 4.6 mph - N/A   Clear
11:35 PM 30.2 °F 26.7 °F 20.3 °F 67% 30.03 in 10.0 mi WSW 3.5 mph - N/A   Clear
11:55 PM 30.2 °F - 20.1 °F 66% 30.03 in 10.0 mi Calm Calm - N/A   Clear